createdAt,value
2019-04-05T06:00:34.448Z,604.00
2019-04-05T06:01:34.393Z,620.00
2019-04-05T06:02:34.361Z,628.00
2019-04-05T06:03:34.333Z,648.00
2019-04-05T06:04:34.340Z,672.00
2019-04-05T06:05:34.314Z,692.00
2019-04-05T06:06:34.354Z,712.00
2019-04-05T06:07:34.292Z,744.00
2019-04-05T06:08:34.294Z,768.00
2019-04-05T06:09:34.347Z,776.00
2019-04-05T06:10:34.287Z,776.00
2019-04-05T06:11:34.302Z,776.00
2019-04-05T06:12:34.274Z,784.00
2019-04-05T06:13:34.228Z,796.00
2019-04-05T06:14:34.263Z,808.00
2019-04-05T06:15:37.315Z,820.00
2019-04-05T06:16:45.917Z,832.00
2019-04-05T06:17:35.187Z,848.00
2019-04-05T06:18:34.238Z,880.00
2019-04-05T06:19:34.167Z,900.00
2019-04-05T06:20:34.155Z,924.00
2019-04-05T06:21:34.180Z,948.00
2019-04-05T06:22:34.139Z,964.00
2019-04-05T06:23:34.438Z,984.00
2019-04-05T06:24:34.141Z,992.00
2019-04-05T06:25:34.110Z,1012.00
2019-04-05T06:26:34.135Z,1040.00
2019-04-05T06:27:35.517Z,1068.00
2019-04-05T06:28:34.093Z,1104.00
2019-04-05T06:29:34.135Z,1136.00
2019-04-05T06:30:34.050Z,1140.00
2019-04-05T06:31:34.049Z,1160.00
2019-04-05T06:32:34.075Z,1176.00
2019-04-05T06:33:35.831Z,1180.00
2019-04-05T06:34:34.020Z,1184.00
2019-04-05T06:35:33.993Z,1200.00
2019-04-05T06:36:33.984Z,1208.00
2019-04-05T06:37:34.029Z,1236.00
2019-04-05T06:38:33.978Z,1252.00
2019-04-05T06:39:33.960Z,1260.00
2019-04-05T06:40:40.537Z,1288.00
2019-04-05T06:41:34.927Z,1296.00
2019-04-05T06:42:33.948Z,1292.00
2019-04-05T06:43:33.951Z,1296.00
2019-04-05T06:44:33.906Z,1288.00
2019-04-05T06:45:33.890Z,1296.00
2019-04-05T06:46:33.878Z,1324.00
2019-04-05T06:47:33.898Z,1360.00
2019-04-05T06:48:33.853Z,1400.00
2019-04-05T06:49:33.855Z,1432.00
2019-04-05T06:50:33.829Z,1468.00
2019-04-05T06:51:33.821Z,1484.00
2019-04-05T06:52:33.869Z,1488.00
2019-04-05T06:53:33.802Z,1500.00
2019-04-05T06:54:33.793Z,1516.00
2019-04-05T06:55:33.806Z,1540.00
2019-04-05T06:56:33.796Z,1584.00
2019-04-05T06:57:33.754Z,1604.00
2019-04-05T06:58:33.744Z,1636.00
2019-04-05T06:59:33.776Z,1684.00
2019-04-05T07:00:33.736Z,1692.00
2019-04-05T07:01:33.721Z,1708.00
2019-04-05T07:02:33.703Z,1700.00
2019-04-05T07:03:33.722Z,1716.00
2019-04-05T07:04:33.721Z,1736.00
2019-04-05T07:05:33.678Z,1768.00
2019-04-05T07:06:33.671Z,1792.00
2019-04-05T07:07:33.649Z,1808.00
2019-04-05T07:08:33.633Z,1840.00
2019-04-05T07:09:34.273Z,1864.00
2019-04-05T07:10:33.648Z,1896.00
2019-04-05T07:11:33.617Z,1972.00
2019-04-05T07:12:33.621Z,2024.00
2019-04-05T07:13:33.596Z,2088.00
2019-04-05T07:14:33.585Z,2168.00
2019-04-05T07:15:33.605Z,2264.00
2019-04-05T07:16:33.557Z,2364.00
2019-04-05T07:17:33.547Z,2452.00
2019-04-05T07:18:36.146Z,2500.00
2019-04-05T07:19:33.519Z,2520.00
2019-04-05T07:20:33.519Z,2568.00
2019-04-05T07:21:33.509Z,2596.00
2019-04-05T07:22:39.186Z,2624.00
2019-04-05T07:23:34.511Z,2636.00
2019-04-05T07:24:33.471Z,2664.00
2019-04-05T07:25:33.461Z,2664.00
2019-04-05T07:26:33.484Z,2652.00
2019-04-05T07:27:33.437Z,2680.00
2019-04-05T07:28:33.431Z,2704.00
2019-04-05T07:29:33.454Z,2756.00
2019-04-05T07:30:33.448Z,2800.00
2019-04-05T07:31:33.401Z,2816.00
2019-04-05T07:32:33.385Z,2772.00
2019-04-05T07:33:33.374Z,2744.00
2019-04-05T07:34:33.411Z,2768.00
2019-04-05T07:35:34.137Z,2820.00
2019-04-05T07:36:33.349Z,2924.00
2019-04-05T07:37:33.336Z,3068.00
2019-04-05T07:38:33.320Z,3188.00
2019-04-05T07:39:33.358Z,3316.00
2019-04-05T07:40:33.297Z,3468.00
2019-04-05T07:41:33.289Z,3660.00
2019-04-05T07:42:33.288Z,3764.00
2019-04-05T07:43:33.269Z,3868.00
2019-04-05T07:44:33.292Z,3916.00
2019-04-05T07:45:33.254Z,3916.00
2019-04-05T07:46:33.263Z,3888.00
2019-04-05T07:47:33.232Z,3860.00
2019-04-05T07:48:44.263Z,3904.00
2019-04-05T07:49:34.239Z,3944.00
2019-04-05T07:50:33.196Z,3972.00
2019-04-05T07:51:33.210Z,4092.00
2019-04-05T07:52:33.178Z,4132.00
2019-04-05T07:53:33.209Z,4072.00
2019-04-05T07:54:33.174Z,4320.00
2019-04-05T07:55:33.149Z,4796.00
2019-04-05T07:56:33.135Z,4980.00
2019-04-05T07:57:33.123Z,4964.00
2019-04-05T07:58:33.125Z,4720.00
2019-04-05T07:59:33.142Z,4660.00
2019-04-05T08:00:33.089Z,4448.00
2019-04-05T08:01:33.082Z,4496.00
2019-04-05T08:02:33.107Z,4724.00
2019-04-05T08:03:33.075Z,5068.00
2019-04-05T08:04:33.041Z,4188.00
2019-04-05T08:05:33.047Z,4176.00
2019-04-05T08:06:33.054Z,4116.00
2019-04-05T08:07:33.031Z,3948.00
2019-04-05T08:08:33.010Z,3992.00
2019-04-05T08:09:32.985Z,4060.00
2019-04-05T08:10:32.988Z,4032.00
2019-04-05T08:11:33.004Z,3836.00
2019-04-05T08:12:32.964Z,3824.00
2019-04-05T08:13:32.959Z,3836.00
2019-04-05T08:14:32.963Z,3844.00
2019-04-05T08:15:32.940Z,3768.00
2019-04-05T08:16:32.957Z,3732.00
2019-04-05T08:17:32.904Z,3756.00
2019-04-05T08:18:32.932Z,3804.00
2019-04-05T08:19:32.893Z,3864.00
2019-04-05T08:20:32.874Z,3980.00
2019-04-05T08:21:32.911Z,4108.00
2019-04-05T08:22:32.898Z,4204.00
2019-04-05T08:23:32.860Z,4256.00
2019-04-05T08:24:32.881Z,4296.00
2019-04-05T08:25:32.826Z,4268.00
2019-04-05T08:26:32.824Z,4332.00
2019-04-05T08:27:32.836Z,4400.00
2019-04-05T08:28:32.810Z,4372.00
2019-04-05T08:29:32.788Z,4372.00
2019-04-05T08:30:32.812Z,4476.00
2019-04-05T08:31:32.762Z,4468.00
2019-04-05T08:32:32.782Z,4504.00
2019-04-05T08:33:32.747Z,4560.00
2019-04-05T08:34:32.730Z,4592.00
2019-04-05T08:35:32.715Z,4616.00
2019-04-05T08:36:32.890Z,4612.00
2019-04-05T08:37:32.695Z,4784.00
2019-04-05T08:38:32.719Z,4904.00
2019-04-05T08:39:32.678Z,4956.00
2019-04-05T08:40:32.722Z,4904.00
2019-04-05T08:41:32.653Z,4900.00
2019-04-05T08:42:32.636Z,5060.00
2019-04-05T08:43:32.631Z,5212.00
2019-04-05T08:44:32.632Z,5332.00
2019-04-05T08:45:32.658Z,5564.00
2019-04-05T08:46:32.611Z,5744.00
2019-04-05T08:47:32.584Z,5800.00
2019-04-05T08:48:32.613Z,5564.00
2019-04-05T08:49:32.564Z,5304.00
2019-04-05T08:50:32.571Z,5100.00
2019-04-05T08:51:32.576Z,4936.00
2019-04-05T08:52:32.543Z,4928.00
2019-04-05T08:53:32.576Z,4908.00
2019-04-05T08:54:36.314Z,4760.00
2019-04-05T08:55:32.536Z,4568.00
2019-04-05T08:56:32.502Z,4608.00
2019-04-05T08:57:32.528Z,4916.00
2019-04-05T08:58:33.537Z,5356.00
2019-04-05T08:59:32.456Z,5864.00
2019-04-05T09:00:32.450Z,6400.00
2019-04-05T09:01:32.442Z,6668.00
2019-04-05T09:02:32.469Z,6536.00
2019-04-05T09:03:32.414Z,5904.00
2019-04-05T09:04:32.468Z,5192.00
2019-04-05T09:05:33.514Z,4600.00
2019-04-05T09:06:32.391Z,4412.00
2019-04-05T09:07:32.385Z,4476.00
2019-04-05T09:08:32.393Z,4212.00
2019-04-05T09:09:32.350Z,3868.00
2019-04-05T09:10:32.346Z,3764.00
2019-04-05T09:11:32.358Z,3788.00
2019-04-05T09:12:32.339Z,3924.00
2019-04-05T09:13:32.348Z,3696.00
2019-04-05T09:14:32.310Z,3516.00
2019-04-05T09:15:32.285Z,3468.00
2019-04-05T09:16:32.282Z,3460.00
2019-04-05T09:17:32.280Z,3744.00
2019-04-05T09:18:32.466Z,3812.00
2019-04-05T09:19:32.261Z,3900.00
2019-04-05T09:20:32.265Z,4188.00
2019-04-05T09:21:32.222Z,4568.00
2019-04-05T09:22:32.222Z,4964.00
2019-04-05T09:23:32.200Z,5640.00
2019-04-05T09:24:32.194Z,6544.00
2019-04-05T09:25:32.254Z,7500.00
2019-04-05T09:26:32.224Z,8848.00
2019-04-05T09:27:32.160Z,10340.00
2019-04-05T09:28:32.158Z,10404.00
2019-04-05T09:29:32.146Z,11296.00
2019-04-05T09:30:32.131Z,10876.00
2019-04-05T09:31:32.139Z,10892.00
2019-04-05T09:32:32.104Z,11752.00
2019-04-05T09:33:32.132Z,10192.00
2019-04-05T09:34:32.100Z,9788.00
2019-04-05T09:35:32.087Z,9896.00
2019-04-05T09:36:32.070Z,9492.00
2019-04-05T09:37:32.084Z,8984.00
2019-04-05T09:38:32.043Z,8152.00
2019-04-05T09:39:32.040Z,7944.00
2019-04-05T09:40:32.036Z,6856.00
2019-04-05T09:41:32.016Z,5980.00
2019-04-05T09:42:32.034Z,6084.00
2019-04-05T09:43:32.031Z,6964.00
2019-04-05T09:44:31.977Z,6760.00
2019-04-05T09:45:31.964Z,5444.00
2019-04-05T09:46:31.955Z,4456.00
2019-04-05T09:47:31.978Z,4272.00
2019-04-05T09:48:31.969Z,5416.00
2019-04-05T09:49:37.020Z,6056.00
2019-04-05T09:50:32.924Z,4764.00
2019-04-05T09:51:31.908Z,3908.00
2019-04-05T09:52:31.890Z,3504.00
2019-04-05T09:53:31.907Z,3672.00
2019-04-05T09:54:31.874Z,3936.00
2019-04-05T09:55:31.879Z,3968.00
2019-04-05T09:56:31.855Z,3880.00
2019-04-05T09:57:31.839Z,3672.00
2019-04-05T09:58:31.861Z,3588.00
2019-04-05T09:59:31.827Z,3184.00
2019-04-05T10:00:31.832Z,2852.00
2019-04-05T10:01:31.830Z,2608.00
2019-04-05T10:02:32.016Z,2432.00
2019-04-05T10:03:31.807Z,2348.00
2019-04-05T10:04:31.763Z,2304.00
2019-04-05T10:05:31.776Z,2344.00
2019-04-05T10:06:31.740Z,2528.00
2019-04-05T10:07:31.738Z,2768.00
2019-04-05T10:08:31.725Z,3048.00
2019-04-05T10:09:31.725Z,3152.00
2019-04-05T10:10:31.735Z,3000.00
2019-04-05T10:11:31.696Z,2852.00
2019-04-05T10:12:31.704Z,2728.00
2019-04-05T10:13:31.676Z,2744.00
2019-04-05T10:14:31.699Z,2816.00
2019-04-05T10:15:31.647Z,3144.00
2019-04-05T10:16:31.677Z,3560.00
2019-04-05T10:17:31.625Z,3768.00
2019-04-05T10:18:31.613Z,3808.00
2019-04-05T10:19:31.603Z,3772.00
2019-04-05T10:20:31.607Z,3648.00
2019-04-05T10:21:31.612Z,3352.00
2019-04-05T10:22:31.575Z,3140.00
2019-04-05T10:23:31.572Z,2984.00
2019-04-05T10:24:33.121Z,2868.00
2019-04-05T10:25:31.538Z,2884.00
2019-04-05T10:26:31.558Z,2892.00
2019-04-05T10:27:31.517Z,2824.00
2019-04-05T10:28:31.552Z,2720.00
2019-04-05T10:29:31.505Z,2652.00
2019-04-05T10:30:31.491Z,2660.00
2019-04-05T10:31:31.478Z,2612.00
2019-04-05T10:32:31.480Z,2544.00
2019-04-05T10:33:31.487Z,2632.00
2019-04-05T10:34:31.448Z,2736.00
2019-04-05T10:35:32.449Z,2944.00
2019-04-05T10:36:31.447Z,3108.00
2019-04-05T10:37:31.445Z,3240.00
2019-04-05T10:38:31.401Z,3492.00
2019-04-05T10:39:31.416Z,3784.00
2019-04-05T10:40:32.381Z,3972.00
2019-04-05T10:41:31.430Z,4088.00
2019-04-05T10:42:31.366Z,4132.00
2019-04-05T10:43:31.351Z,4180.00
2019-04-05T10:44:31.351Z,4208.00
2019-04-05T10:45:31.346Z,4104.00
2019-04-05T10:46:31.348Z,4492.00
2019-04-05T10:47:31.309Z,5156.00
2019-04-05T10:48:31.301Z,5608.00
2019-04-05T10:49:31.317Z,5960.00
2019-04-05T10:50:31.273Z,5972.00
2019-04-05T10:51:31.299Z,5872.00
2019-04-05T10:52:31.261Z,5960.00
2019-04-05T10:53:31.245Z,6124.00
2019-04-05T10:54:31.241Z,6428.00
2019-04-05T10:55:31.223Z,6368.00
2019-04-05T10:56:31.247Z,6200.00
2019-04-05T10:57:31.200Z,6104.00
2019-04-05T10:58:31.205Z,6120.00
2019-04-05T10:59:31.181Z,5964.00
2019-04-05T11:00:31.164Z,6068.00
2019-04-05T11:01:31.196Z,5968.00
2019-04-05T11:02:31.194Z,5756.00
2019-04-05T11:03:31.141Z,5160.00
2019-04-05T11:04:31.146Z,4652.00
2019-04-05T11:05:31.278Z,4688.00
2019-04-05T11:06:31.140Z,4680.00
2019-04-05T11:07:31.092Z,4280.00
2019-04-05T11:08:31.093Z,3608.00
2019-04-05T11:09:31.086Z,3152.00
2019-04-05T11:10:31.059Z,2832.00
2019-04-05T11:11:31.115Z,2536.00
2019-04-05T11:12:31.054Z,2364.00
2019-04-05T11:13:31.036Z,2308.00
2019-04-05T11:14:31.018Z,2168.00
2019-04-05T11:15:31.145Z,2164.00
2019-04-05T11:16:31.024Z,2348.00
2019-04-05T11:17:31.007Z,2460.00
2019-04-05T11:18:32.820Z,2764.00
2019-04-05T11:19:32.350Z,3092.00
2019-04-05T11:20:30.960Z,3420.00
2019-04-05T11:21:30.994Z,3644.00
2019-04-05T11:22:30.933Z,3876.00
2019-04-05T11:23:30.937Z,4168.00
2019-04-05T11:24:30.910Z,4360.00
2019-04-05T11:25:30.915Z,4376.00
2019-04-05T11:26:30.936Z,4220.00
2019-04-05T11:27:30.884Z,4004.00
2019-04-05T11:28:30.881Z,3812.00
2019-04-05T11:29:30.861Z,3700.00
2019-04-05T11:30:31.374Z,3760.00
2019-04-05T11:31:30.864Z,3888.00
2019-04-05T11:32:30.840Z,4196.00
2019-04-05T11:33:30.862Z,4424.00
2019-04-05T11:34:30.804Z,4208.00
2019-04-05T11:35:30.797Z,3736.00
2019-04-05T11:36:30.781Z,3384.00
2019-04-05T11:37:30.777Z,3200.00
2019-04-05T11:38:30.810Z,3172.00
2019-04-05T11:39:30.749Z,3188.00
2019-04-05T11:40:30.745Z,3140.00
2019-04-05T11:41:30.737Z,3084.00
2019-04-05T11:42:32.994Z,3052.00
2019-04-05T11:43:31.432Z,2996.00
2019-04-05T11:44:30.695Z,2952.00
2019-04-05T11:45:30.689Z,2892.00
2019-04-05T11:46:30.680Z,2876.00
2019-04-05T11:47:30.665Z,2744.00
2019-04-05T11:48:31.030Z,2624.00
2019-04-05T11:49:30.692Z,2604.00
2019-04-05T11:50:34.675Z,2636.00
2019-04-05T11:51:31.420Z,2572.00
2019-04-05T11:52:30.610Z,2480.00
2019-04-05T11:53:30.623Z,2440.00
2019-04-05T11:54:30.633Z,2420.00
2019-04-05T11:55:30.583Z,2420.00
2019-04-05T11:56:30.598Z,2416.00
2019-04-05T11:57:30.567Z,2392.00
2019-04-05T11:58:30.565Z,2308.00
2019-04-05T11:59:30.571Z,2236.00
2019-04-05T12:00:30.529Z,2204.00
2019-04-05T12:01:30.537Z,2152.00
2019-04-05T12:02:30.513Z,2012.00
2019-04-05T12:03:30.518Z,1964.00
2019-04-05T12:04:30.547Z,1896.00
2019-04-05T12:05:30.482Z,1856.00
2019-04-05T12:06:30.487Z,1860.00
2019-04-05T12:07:30.455Z,1868.00
2019-04-05T12:08:30.439Z,1868.00
2019-04-05T12:09:30.487Z,1924.00
2019-04-05T12:10:31.989Z,2020.00
2019-04-05T12:11:30.405Z,2132.00
2019-04-05T12:12:30.425Z,2204.00
2019-04-05T12:13:30.425Z,2256.00
2019-04-05T12:14:30.737Z,2236.00
2019-04-05T12:15:30.372Z,2212.00
2019-04-05T12:16:30.397Z,2156.00
2019-04-05T12:17:30.386Z,2104.00
2019-04-05T12:18:30.335Z,2048.00
2019-04-05T12:19:30.328Z,2036.00
2019-04-05T12:20:30.780Z,2032.00
2019-04-05T12:21:30.340Z,2068.00
2019-04-05T12:22:30.297Z,2100.00
2019-04-05T12:23:32.616Z,2112.00
2019-04-05T12:24:32.369Z,2132.00
2019-04-05T12:25:33.384Z,2124.00
2019-04-05T12:26:32.434Z,2056.00
2019-04-05T12:27:30.276Z,1992.00
2019-04-05T12:28:30.246Z,1904.00
2019-04-05T12:29:30.900Z,1744.00
2019-04-05T12:30:31.383Z,1652.00
2019-04-05T12:31:30.909Z,1632.00
2019-04-05T12:32:34.497Z,1656.00
2019-04-05T12:33:31.176Z,1728.00
2019-04-05T12:34:30.174Z,1752.00
2019-04-05T12:35:30.936Z,1712.00
2019-04-05T12:36:30.320Z,1716.00
2019-04-05T12:37:30.167Z,1716.00
2019-04-05T12:38:31.488Z,1784.00
2019-04-05T12:39:30.116Z,1824.00
2019-04-05T12:40:30.095Z,1828.00
2019-04-05T12:41:30.149Z,1828.00
2019-04-05T12:42:30.085Z,1808.00
2019-04-05T12:43:30.088Z,1764.00
2019-04-05T12:44:30.059Z,1640.00
2019-04-05T12:45:30.043Z,1524.00
2019-04-05T12:46:30.431Z,1468.00
2019-04-05T12:47:30.042Z,1492.00
2019-04-05T12:48:30.021Z,1504.00
2019-04-05T12:49:30.005Z,1520.00
2019-04-05T12:50:30.022Z,1616.00
2019-04-05T12:51:29.998Z,1708.00
2019-04-05T12:52:29.972Z,1796.00
2019-04-05T12:53:29.960Z,1856.00
2019-04-05T12:54:30.028Z,1868.00
2019-04-05T12:55:30.004Z,1796.00
2019-04-05T12:56:30.011Z,1740.00
2019-04-05T12:57:29.929Z,1712.00
2019-04-05T12:58:32.574Z,1740.00
2019-04-05T12:59:29.960Z,1768.00
2019-04-05T13:00:29.900Z,1800.00
2019-04-05T13:01:29.879Z,1844.00
2019-04-05T13:02:34.024Z,1876.00
2019-04-05T13:03:29.877Z,1900.00
2019-04-05T13:04:29.897Z,1964.00
2019-04-05T13:05:29.866Z,2028.00
2019-04-05T13:06:29.828Z,2132.00
2019-04-05T13:07:29.862Z,2224.00
2019-04-05T13:08:29.803Z,2288.00
2019-04-05T13:09:29.849Z,2312.00
2019-04-05T13:10:30.574Z,2320.00
2019-04-05T13:11:29.775Z,2328.00
2019-04-05T13:12:29.762Z,2332.00
2019-04-05T13:13:29.753Z,2308.00
2019-04-05T13:14:30.418Z,2260.00
2019-04-05T13:15:29.746Z,2240.00
2019-04-05T13:16:29.731Z,2276.00
2019-04-05T13:17:31.303Z,2388.00
2019-04-05T13:18:31.564Z,2556.00
2019-04-05T13:19:30.602Z,2776.00
2019-04-05T13:20:30.381Z,2932.00
2019-04-05T13:21:32.134Z,3052.00
2019-04-05T13:22:32.260Z,3172.00
2019-04-05T13:23:29.639Z,3192.00
2019-04-05T13:24:29.629Z,3188.00
2019-04-05T13:25:29.651Z,3188.00
2019-04-05T13:26:29.736Z,3124.00
2019-04-05T13:27:30.362Z,2964.00
2019-04-05T13:28:29.585Z,2776.00
2019-04-05T13:29:29.632Z,2624.00
2019-04-05T13:30:29.596Z,2452.00
2019-04-05T13:31:29.565Z,2352.00
2019-04-05T13:32:29.605Z,2340.00
2019-04-05T13:33:29.533Z,2376.00
2019-04-05T13:34:29.557Z,2448.00
2019-04-05T13:35:29.542Z,2524.00
2019-04-05T13:36:30.468Z,2492.00
2019-04-05T13:37:30.751Z,2424.00
2019-04-05T13:38:30.034Z,2296.00
2019-04-05T13:39:29.768Z,2140.00
2019-04-05T13:40:30.146Z,1952.00
2019-04-05T13:41:31.679Z,1788.00
2019-04-05T13:42:31.520Z,1652.00
2019-04-05T13:43:29.833Z,1604.00
2019-04-05T13:44:31.801Z,1576.00
2019-04-05T13:45:29.432Z,1596.00
2019-04-05T13:46:29.397Z,1624.00
2019-04-05T13:47:29.394Z,1636.00
2019-04-05T13:48:29.376Z,1620.00
2019-04-05T13:49:29.407Z,1624.00
2019-04-05T13:50:29.349Z,1672.00
2019-04-05T13:51:31.968Z,1760.00
2019-04-05T13:52:29.424Z,1900.00
2019-04-05T13:53:29.339Z,2004.00
2019-04-05T13:54:29.353Z,1968.00
2019-04-05T13:55:29.304Z,1764.00
2019-04-05T13:56:29.854Z,1576.00
2019-04-05T13:57:29.276Z,1488.00
2019-04-05T13:58:29.277Z,1484.00
2019-04-05T13:59:29.298Z,1552.00
2019-04-05T14:00:29.254Z,1644.00
2019-04-05T14:01:29.248Z,1704.00
2019-04-05T14:02:30.647Z,1800.00
2019-04-05T14:03:30.478Z,1908.00
2019-04-05T14:04:29.877Z,1956.00
2019-04-05T14:05:29.283Z,1960.00
2019-04-05T14:06:29.214Z,1940.00
2019-04-05T14:07:30.409Z,1856.00
2019-04-05T14:08:29.227Z,1868.00
2019-04-05T14:09:31.543Z,1940.00
2019-04-05T14:10:29.217Z,1940.00
2019-04-05T14:11:29.130Z,1916.00
2019-04-05T14:12:31.287Z,2000.00
2019-04-05T14:13:29.114Z,2084.00
2019-04-05T14:14:29.138Z,2168.00
2019-04-05T14:15:31.373Z,2352.00
2019-04-05T14:16:29.101Z,2552.00
2019-04-05T14:17:29.097Z,2744.00
2019-04-05T14:18:29.060Z,2920.00
2019-04-05T14:19:29.079Z,2952.00
2019-04-05T14:20:29.105Z,2940.00
2019-04-05T14:21:39.748Z,2868.00
2019-04-05T14:22:30.071Z,2820.00
2019-04-05T14:23:29.007Z,2832.00
2019-04-05T14:24:29.018Z,2948.00
2019-04-05T14:25:30.268Z,3044.00
2019-04-05T14:26:29.335Z,3096.00
2019-04-05T14:27:28.969Z,3132.00
2019-04-05T14:28:28.973Z,3156.00
2019-04-05T14:29:29.039Z,3164.00
2019-04-05T14:30:32.638Z,3084.00
2019-04-05T14:31:29.602Z,3004.00
2019-04-05T14:32:30.032Z,2860.00
2019-04-05T14:33:28.899Z,2688.00
2019-04-05T14:34:28.924Z,2464.00
2019-04-05T14:35:28.872Z,2340.00
2019-04-05T14:36:29.044Z,2340.00
2019-04-05T14:37:29.608Z,2396.00
2019-04-05T14:38:31.299Z,2384.00
2019-04-05T14:39:29.884Z,2444.00
2019-04-05T14:40:31.625Z,2464.00
2019-04-05T14:41:28.820Z,2400.00
2019-04-05T14:42:30.422Z,2216.00
2019-04-05T14:43:29.201Z,2028.00
2019-04-05T14:44:28.879Z,1928.00
2019-04-05T14:45:28.770Z,1800.00
2019-04-05T14:46:29.190Z,1716.00
2019-04-05T14:47:28.995Z,1672.00
2019-04-05T14:48:31.675Z,1604.00
2019-04-05T14:49:30.708Z,1608.00
2019-04-05T14:50:29.043Z,1684.00
2019-04-05T14:51:29.341Z,1796.00
2019-04-05T14:52:30.929Z,1856.00
2019-04-05T14:53:31.761Z,1804.00
2019-04-05T14:54:30.280Z,1704.00
2019-04-05T14:55:29.965Z,1644.00
2019-04-05T14:56:29.210Z,1628.00
2019-04-05T14:57:28.664Z,1708.00
2019-04-05T14:58:28.652Z,1812.00
2019-04-05T14:59:28.670Z,1860.00
2019-04-05T15:00:28.614Z,1896.00
2019-04-05T15:01:28.670Z,1928.00
2019-04-05T15:02:28.599Z,1952.00
2019-04-05T15:03:28.574Z,1908.00
2019-04-05T15:04:28.691Z,1744.00
2019-04-05T15:05:28.553Z,1524.00
2019-04-05T15:06:28.564Z,1400.00
2019-04-05T15:07:28.560Z,1316.00
2019-04-05T15:08:28.520Z,1284.00
2019-04-05T15:09:28.538Z,1260.00
2019-04-05T15:10:28.499Z,1236.00
2019-04-05T15:11:29.462Z,1260.00
2019-04-05T15:12:29.150Z,1276.00
2019-04-05T15:13:28.550Z,1276.00
2019-04-05T15:14:28.462Z,1288.00
2019-04-05T15:15:28.925Z,1332.00
2019-04-05T15:16:28.456Z,1376.00
2019-04-05T15:17:28.435Z,1376.00
2019-04-05T15:18:28.478Z,1320.00
2019-04-05T15:19:28.615Z,1296.00
2019-04-05T15:20:28.393Z,1256.00
2019-04-05T15:21:28.427Z,1236.00
2019-04-05T15:22:28.374Z,1252.00
2019-04-05T15:23:28.360Z,1264.00
2019-04-05T15:24:28.360Z,1260.00
2019-04-05T15:25:28.345Z,1216.00
2019-04-05T15:26:28.390Z,1184.00
2019-04-05T15:27:28.340Z,1180.00
2019-04-05T15:28:28.337Z,1224.00
2019-04-05T15:29:28.297Z,1232.00
2019-04-05T15:30:28.322Z,1244.00
2019-04-05T15:31:28.300Z,1248.00
2019-04-05T15:32:28.273Z,1248.00
2019-04-05T15:33:28.490Z,1244.00
2019-04-05T15:34:29.187Z,1228.00
2019-04-05T15:35:30.693Z,1184.00
2019-04-05T15:36:29.438Z,1152.00
2019-04-05T15:37:31.787Z,1124.00
2019-04-05T15:38:31.294Z,1108.00
2019-04-05T15:39:28.562Z,1128.00
2019-04-05T15:40:28.761Z,1172.00
2019-04-05T15:41:28.167Z,1212.00
2019-04-05T15:42:28.183Z,1248.00
2019-04-05T15:43:28.313Z,1284.00
2019-04-05T15:44:28.140Z,1288.00
2019-04-05T15:45:28.351Z,1252.00
2019-04-05T15:46:28.426Z,1212.00
2019-04-05T15:47:28.497Z,1140.00
2019-04-05T15:48:28.293Z,1064.00
2019-04-05T15:49:28.099Z,1016.00
2019-04-05T15:50:28.161Z,1012.00
2019-04-05T15:51:28.426Z,1036.00
2019-04-05T15:52:31.383Z,1052.00
2019-04-05T15:53:31.898Z,1032.00
2019-04-05T15:54:29.229Z,964.00
2019-04-05T15:55:28.026Z,928.00
2019-04-05T15:56:28.159Z,892.00
2019-04-05T15:57:28.115Z,876.00
2019-04-05T15:58:28.231Z,892.00
2019-04-05T15:59:28.083Z,916.00
2019-04-05T16:00:28.099Z,912.00
2019-04-05T16:01:28.431Z,896.00
2019-04-05T16:02:27.987Z,880.00
2019-04-05T16:03:27.958Z,872.00
2019-04-05T16:04:27.996Z,868.00
2019-04-05T16:05:27.916Z,824.00
2019-04-05T16:06:27.918Z,764.00
2019-04-05T16:07:27.902Z,708.00
2019-04-05T16:08:27.883Z,664.00
2019-04-05T16:09:27.918Z,640.00
2019-04-05T16:10:27.869Z,644.00
2019-04-05T16:11:27.855Z,656.00
2019-04-05T16:12:27.891Z,644.00
2019-04-05T16:13:27.849Z,648.00
2019-04-05T16:14:27.900Z,664.00
2019-04-05T16:15:27.806Z,672.00
2019-04-05T16:16:27.877Z,644.00
2019-04-05T16:17:27.785Z,612.00
2019-04-05T16:18:27.784Z,560.00
2019-04-05T16:19:27.794Z,520.00
2019-04-05T16:20:27.761Z,500.00
2019-04-05T16:21:27.790Z,488.00
2019-04-05T16:22:31.461Z,472.00
2019-04-05T16:23:27.717Z,456.00
2019-04-05T16:24:27.740Z,432.00
2019-04-05T16:25:27.729Z,392.00
2019-04-05T16:26:27.701Z,376.00
2019-04-05T16:27:27.706Z,368.00
2019-04-05T16:28:27.694Z,372.00
2019-04-05T16:29:27.659Z,388.00
2019-04-05T16:30:27.906Z,404.00
2019-04-05T16:31:28.390Z,428.00
2019-04-05T16:32:27.733Z,448.00
2019-04-05T16:33:27.654Z,468.00
2019-04-05T16:34:27.681Z,480.00
2019-04-05T16:35:27.602Z,464.00
2019-04-05T16:36:31.000Z,448.00
2019-04-05T16:37:27.633Z,432.00
2019-04-05T16:38:27.788Z,428.00
2019-04-05T16:39:27.594Z,428.00
2019-04-05T16:40:27.596Z,444.00
2019-04-05T16:41:27.545Z,472.00
2019-04-05T16:42:27.518Z,492.00
2019-04-05T16:43:27.510Z,500.00
2019-04-05T16:44:27.543Z,492.00
2019-04-05T16:45:28.910Z,472.00
2019-04-05T16:46:27.472Z,444.00
2019-04-05T16:47:28.302Z,436.00
2019-04-05T16:48:27.508Z,428.00
2019-04-05T16:49:27.492Z,424.00
2019-04-05T16:50:27.436Z,416.00
2019-04-05T16:51:27.431Z,412.00
2019-04-05T16:52:27.411Z,404.00
2019-04-05T16:53:27.427Z,380.00
2019-04-05T16:54:27.732Z,368.00
2019-04-05T16:55:27.409Z,356.00
2019-04-05T16:56:27.371Z,348.00
2019-04-05T16:57:27.368Z,356.00
2019-04-05T16:58:27.409Z,360.00
2019-04-05T16:59:27.371Z,360.00
2019-04-05T17:00:27.355Z,364.00
2019-04-05T17:01:27.743Z,364.00
2019-04-05T17:02:27.311Z,348.00
2019-04-05T17:03:27.363Z,312.00
2019-04-05T17:04:27.287Z,280.00
2019-04-05T17:05:27.322Z,264.00
2019-04-05T17:06:27.299Z,252.00
2019-04-05T17:07:27.307Z,244.00
2019-04-05T17:08:27.304Z,236.00
2019-04-05T17:09:27.233Z,232.00
2019-04-05T17:10:27.247Z,228.00
2019-04-05T17:11:27.229Z,216.00
2019-04-05T17:12:27.208Z,196.00
2019-04-05T17:13:27.333Z,184.00
2019-04-05T17:14:27.210Z,172.00
2019-04-05T17:15:27.200Z,164.00
2019-04-05T17:16:27.173Z,160.00
2019-04-05T17:17:27.157Z,152.00
2019-04-05T17:18:27.454Z,148.00
2019-04-05T17:19:27.160Z,144.00
2019-04-05T17:20:27.137Z,140.00
2019-04-05T17:21:27.108Z,136.00
2019-04-05T17:22:27.110Z,128.00
2019-04-05T17:23:27.119Z,120.00
2019-04-05T17:24:27.102Z,120.00
2019-04-05T17:25:27.102Z,120.00
2019-04-05T17:26:27.057Z,120.00
2019-04-05T17:27:27.121Z,120.00
2019-04-05T17:28:27.039Z,116.00
2019-04-05T17:29:27.061Z,112.00
2019-04-05T17:30:27.023Z,112.00
2019-04-05T17:31:27.054Z,112.00
2019-04-05T17:32:27.059Z,108.00
2019-04-05T17:33:26.991Z,108.00
2019-04-05T17:34:26.967Z,112.00
2019-04-05T17:35:26.992Z,112.00
2019-04-05T17:36:26.975Z,104.00
2019-04-05T17:37:26.979Z,100.00
2019-04-05T17:38:27.001Z,88.00
2019-04-05T17:39:26.951Z,84.00
2019-04-05T17:40:26.942Z,80.00
2019-04-05T17:41:26.907Z,76.00
2019-04-05T17:42:27.017Z,72.00
2019-04-05T17:43:26.914Z,68.00
2019-04-05T17:44:26.875Z,56.00
2019-04-05T17:45:26.910Z,52.00
2019-04-05T17:46:26.841Z,52.00
2019-04-05T17:47:26.854Z,52.00
2019-04-05T17:48:26.874Z,48.00
2019-04-05T17:49:26.853Z,48.00
2019-04-05T17:50:26.826Z,40.00
2019-04-05T17:51:26.787Z,40.00
2019-04-05T17:52:26.793Z,36.00
2019-04-05T17:53:26.820Z,32.00
2019-04-05T17:54:26.787Z,32.00
2019-04-05T17:55:26.757Z,32.00
2019-04-05T17:56:26.739Z,28.00
2019-04-05T17:57:26.731Z,28.00
2019-04-05T17:58:26.743Z,24.00
2019-04-05T17:59:26.735Z,24.00
